LFBH/LRH METAR and TAF weather

Enter ICAO airport designator
Station Type Date Time Source
LFBH METAR 2021/09/16 10:00 UTC NOAA

LFBH 161000Z AUTO 30008KT 270V330 9999 FEW009 19/16 Q1019 NOSIG


Station Type Date Time Source
LFBH Decoded METAR 2021/09/16 10:00 UTC NOAA

La Rochelle, France (LFBH) 46-09N 001-09W 10M
Sep 16, 2021 - 06:00 AM EDT / 2021.09.16 1000 UTC
Wind: from the WNW (300 degrees) at 9 MPH (8 KT) (direction variable):0
Visibility: greater than 7 mile(s):0
Sky conditions: mostly clear
Temperature: 66 F (19 C)
Dew Point: 60 F (16 C)
Relative Humidity: 82%
Pressure (altimeter): 30.09 in. Hg (1019 hPa)
ob: LFBH 161000Z AUTO 30008KT 270V330 9999 FEW009 19/16 Q1019 NOSIG
cycle: 10

Station Type Date Time Source
LFBH TAF 2021/09/16 09:36 UTC NOAA

TAF
AMD TAF
AMD LFBH 160935Z 1609/1706 36005KT 9999 BKN008
BECMG 1609/1611 BKN015
BECMG 1611/1613 30010KT BKN030

Example: see airport list